Pleasant Dale, Nebraska
Current Conditions -  °F | °C
As of 7:54 AM on Sunday 21 Dec 2014 (Local Time) from KLNK Reporting Station
Overcast Overcast  
Wind Chill: 32°   Ceiling: 800
Heat Index: 39°   Visibility: 7mi
Dew Point: 36°   Wind: 12mph
Humidity: 89%   Direction: 190°S
Pressure: 29.88"   Gusts: NA
Location:  40.79°N, 96.93°W
Report Text: KLNK 211354Z 19010KT 7SM OVC008 04/02 A2988 RMK AO2 SLP128 T00390022
Loading
Personal Weather Stations






























Interactive Weather Map New forecast layout! Learn more

10-Day Weather Forecast

Advertisements
Track Severe Weather on mobile